sensor_id;sensor_type;location;lat;lon;timestamp;pressure;altitude;pressure_sealevel;temperature;humidity
49311;BME280;35177;45.900;5.946;2023-01-29T00:02:00;98213.69;;;0.37;100.00
49311;BME280;35177;45.900;5.946;2023-01-29T00:04:26;98217.03;;;0.39;100.00
49311;BME280;35177;45.900;5.946;2023-01-29T00:06:51;98217.72;;;0.34;100.00
49311;BME280;35177;45.900;5.946;2023-01-29T00:09:17;98213.09;;;0.35;100.00
49311;BME280;35177;45.900;5.946;2023-01-29T00:11:42;98221.06;;;0.36;100.00
49311;BME280;35177;45.900;5.946;2023-01-29T00:14:08;98221.28;;;0.35;100.00
49311;BME280;35177;45.900;5.946;2023-01-29T00:16:33;98217.84;;;0.39;100.00
49311;BME280;35177;45.900;5.946;2023-01-29T00:19:03;98214.16;;;0.34;100.00
49311;BME280;35177;45.900;5.946;2023-01-29T00:21:29;98213.91;;;0.35;100.00
49311;BME280;35177;45.900;5.946;2023-01-29T00:23:55;98220.00;;;0.37;100.00
49311;BME280;35177;45.900;5.946;2023-01-29T00:26:20;98217.63;;;0.41;100.00
49311;BME280;35177;45.900;5.946;2023-01-29T00:28:46;98224.38;;;0.38;100.00
49311;BME280;35177;45.900;5.946;2023-01-29T00:31:14;98211.56;;;0.39;100.00
49311;BME280;35177;45.900;5.946;2023-01-29T00:33:40;98218.19;;;0.43;100.00
49311;BME280;35177;45.900;5.946;2023-01-29T00:36:08;98217.13;;;0.44;100.00
49311;BME280;35177;45.900;5.946;2023-01-29T00:38:34;98215.09;;;0.39;100.00
49311;BME280;35177;45.900;5.946;2023-01-29T00:41:11;98210.75;;;0.38;100.00
49311;BME280;35177;45.900;5.946;2023-01-29T00:43:55;98208.59;;;0.40;100.00
49311;BME280;35177;45.900;5.946;2023-01-29T00:46:39;98211.19;;;0.35;100.00
49311;BME280;35177;45.900;5.946;2023-01-29T00:49:06;98213.91;;;0.35;100.00
49311;BME280;35177;45.900;5.946;2023-01-29T00:51:32;98207.41;;;0.36;100.00
49311;BME280;35177;45.900;5.946;2023-01-29T00:53:58;98207.41;;;0.36;100.00
49311;BME280;35177;45.900;5.946;2023-01-29T00:56:24;98211.31;;;0.40;100.00
49311;BME280;35177;45.900;5.946;2023-01-29T00:58:50;98207.78;;;0.40;100.00
49311;BME280;35177;45.900;5.946;2023-01-29T01:01:16;98207.28;;;0.43;100.00
49311;BME280;35177;45.900;5.946;2023-01-29T01:03:41;98201.56;;;0.32;100.00
49311;BME280;35177;45.900;5.946;2023-01-29T01:06:09;98210.13;;;0.36;100.00
49311;BME280;35177;45.900;5.946;2023-01-29T01:08:35;98207.47;;;0.29;100.00
49311;BME280;35177;45.900;5.946;2023-01-29T01:11:19;98206.78;;;0.22;100.00
49311;BME280;35177;45.900;5.946;2023-01-29T01:13:45;98205.84;;;0.28;100.00
49311;BME280;35177;45.900;5.946;2023-01-29T01:16:12;98213.31;;;0.21;100.00
49311;BME280;35177;45.900;5.946;2023-01-29T01:18:38;98216.16;;;-0.04;100.00
49311;BME280;35177;45.900;5.946;2023-01-29T01:21:04;98223.25;;;-0.15;100.00
49311;BME280;35177;45.900;5.946;2023-01-29T01:23:29;98221.94;;;-0.12;100.00
49311;BME280;35177;45.900;5.946;2023-01-29T01:25:55;98227.19;;;-0.11;100.00
49311;BME280;35177;45.900;5.946;2023-01-29T01:28:20;98226.94;;;-0.09;100.00
49311;BME280;35177;45.900;5.946;2023-01-29T01:30:46;98226.94;;;-0.09;100.00
49311;BME280;35177;45.900;5.946;2023-01-29T01:33:11;98229.69;;;-0.09;100.00
49311;BME280;35177;45.900;5.946;2023-01-29T01:35:38;98231.47;;;-0.03;100.00
49311;BME280;35177;45.900;5.946;2023-01-29T01:38:03;98227.69;;;-0.02;100.00
49311;BME280;35177;45.900;5.946;2023-01-29T01:40:29;98229.06;;;-0.11;100.00
49311;BME280;35177;45.900;5.946;2023-01-29T01:42:57;98229.31;;;-0.13;100.00
49311;BME280;35177;45.900;5.946;2023-01-29T01:45:33;98231.59;;;-0.28;100.00
49311;BME280;35177;45.900;5.946;2023-01-29T01:50:43;98232.03;;;-0.13;100.00
49311;BME280;35177;45.900;5.946;2023-01-29T01:53:15;98239.78;;;-0.10;100.00
49311;BME280;35177;45.900;5.946;2023-01-29T01:55:49;98246.28;;;-0.11;100.00
49311;BME280;35177;45.900;5.946;2023-01-29T01:58:21;98245.75;;;-0.01;100.00
49311;BME280;35177;45.900;5.946;2023-01-29T02:00:48;98246.09;;;0.03;100.00
49311;BME280;35177;45.900;5.946;2023-01-29T02:03:14;98254.66;;;0.06;100.00
49311;BME280;35177;45.900;5.946;2023-01-29T02:06:00;98257.16;;;0.08;100.00
49311;BME280;35177;45.900;5.946;2023-01-29T02:08:55;98251.94;;;0.06;100.00
49311;BME280;35177;45.900;5.946;2023-01-29T02:11:41;98255.00;;;0.10;100.00
49311;BME280;35177;45.900;5.946;2023-01-29T02:14:07;98255.38;;;0.13;100.00
49311;BME280;35177;45.900;5.946;2023-01-29T02:16:34;98260.03;;;0.13;100.00
49311;BME280;35177;45.900;5.946;2023-01-29T02:19:00;98262.13;;;0.11;100.00
49311;BME280;35177;45.900;5.946;2023-01-29T02:27:08;98267.97;;;0.14;100.00
49311;BME280;35177;45.900;5.946;2023-01-29T02:35:15;98267.28;;;0.19;100.00
49311;BME280;35177;45.900;5.946;2023-01-29T02:40:54;98280.47;;;0.22;100.00
49311;BME280;35177;45.900;5.946;2023-01-29T02:46:51;98267.66;;;0.23;100.00
49311;BME280;35177;45.900;5.946;2023-01-29T02:51:42;98277.38;;;0.19;100.00
49311;BME280;35177;45.900;5.946;2023-01-29T02:57:03;98291.84;;;0.19;100.00
49311;BME280;35177;45.900;5.946;2023-01-29T02:59:37;98291.59;;;0.21;100.00
49311;BME280;35177;45.900;5.946;2023-01-29T03:02:08;98303.75;;;0.25;100.00
49311;BME280;35177;45.900;5.946;2023-01-29T03:04:40;98314.16;;;0.16;100.00
49311;BME280;35177;45.900;5.946;2023-01-29T03:07:15;98305.50;;;0.19;100.00
49311;BME280;35177;45.900;5.946;2023-01-29T03:10:03;98313.06;;;0.17;100.00
49311;BME280;35177;45.900;5.946;2023-01-29T03:12:32;98322.34;;;0.16;100.00
49311;BME280;35177;45.900;5.946;2023-01-29T03:15:07;98322.25;;;0.23;100.00
49311;BME280;35177;45.900;5.946;2023-01-29T03:17:41;98326.03;;;0.22;100.00
49311;BME280;35177;45.900;5.946;2023-01-29T03:20:12;98324.00;;;0.17;100.00
49311;BME280;35177;45.900;5.946;2023-01-29T03:22:44;98327.09;;;0.21;100.00
49311;BME280;35177;45.900;5.946;2023-01-29T03:25:12;98316.78;;;0.23;100.00
49311;BME280;35177;45.900;5.946;2023-01-29T03:27:59;98323.69;;;0.25;100.00
49311;BME280;35177;45.900;5.946;2023-01-29T03:30:52;98322.47;;;0.21;100.00
49311;BME280;35177;45.900;5.946;2023-01-29T03:33:47;98325.78;;;0.23;100.00
49311;BME280;35177;45.900;5.946;2023-01-29T03:36:31;98328.53;;;0.23;100.00
49311;BME280;35177;45.900;5.946;2023-01-29T03:39:04;98325.59;;;0.25;100.00
49311;BME280;35177;45.900;5.946;2023-01-29T03:41:47;98320.81;;;0.20;100.00
49311;BME280;35177;45.900;5.946;2023-01-29T03:47:00;98334.22;;;0.22;100.00
49311;BME280;35177;45.900;5.946;2023-01-29T03:49:52;98338.00;;;0.21;100.00
49311;BME280;35177;45.900;5.946;2023-01-29T03:52:50;98336.13;;;0.21;100.00
49311;BME280;35177;45.900;5.946;2023-01-29T03:55:48;98326.50;;;0.19;100.00
49311;BME280;35177;45.900;5.946;2023-01-29T04:00:57;98328.53;;;0.23;100.00
49311;BME280;35177;45.900;5.946;2023-01-29T04:06:04;98331.41;;;0.28;100.00
49311;BME280;35177;45.900;5.946;2023-01-29T04:11:27;98318.22;;;0.25;100.00
49311;BME280;35177;45.900;5.946;2023-01-29T04:13:55;98323.22;;;0.28;100.00
49311;BME280;35177;45.900;5.946;2023-01-29T04:16:34;98323.31;;;0.22;100.00
49311;BME280;35177;45.900;5.946;2023-01-29T04:19:01;98318.38;;;0.12;100.00
49311;BME280;35177;45.900;5.946;2023-01-29T04:21:27;98327.19;;;0.14;100.00
49311;BME280;35177;45.900;5.946;2023-01-29T04:23:56;98324.75;;;0.06;100.00
49311;BME280;35177;45.900;5.946;2023-01-29T04:26:37;98324.00;;;-0.02;100.00
49311;BME280;35177;45.900;5.946;2023-01-29T04:31:36;98328.28;;;-0.06;100.00
49311;BME280;35177;45.900;5.946;2023-01-29T04:34:16;98333.72;;;-0.06;100.00
49311;BME280;35177;45.900;5.946;2023-01-29T04:37:14;98329.03;;;-0.17;100.00
49311;BME280;35177;45.900;5.946;2023-01-29T04:45:17;98324.16;;;-0.15;100.00
49311;BME280;35177;45.900;5.946;2023-01-29T04:48:04;98324.78;;;-0.13;100.00
49311;BME280;35177;45.900;5.946;2023-01-29T04:50:40;98324.03;;;-0.20;100.00
49311;BME280;35177;45.900;5.946;2023-01-29T04:53:20;98320.34;;;-0.26;100.00
49311;BME280;35177;45.900;5.946;2023-01-29T04:55:56;98318.03;;;-0.29;100.00
49311;BME280;35177;45.900;5.946;2023-01-29T05:00:49;98320.00;;;-0.36;100.00
49311;BME280;35177;45.900;5.946;2023-01-29T05:03:18;98327.66;;;-0.26;100.00
49311;BME280;35177;45.900;5.946;2023-01-29T05:05:47;98331.69;;;-0.29;100.00
49311;BME280;35177;45.900;5.946;2023-01-29T05:08:15;98330.16;;;-0.25;100.00
49311;BME280;35177;45.900;5.946;2023-01-29T05:10:45;98326.47;;;-0.30;100.00
49311;BME280;35177;45.900;5.946;2023-01-29T05:13:14;98325.84;;;-0.33;100.00
49311;BME280;35177;45.900;5.946;2023-01-29T05:15:47;98321.38;;;-0.27;100.00
49311;BME280;35177;45.900;5.946;2023-01-29T05:18:14;98323.66;;;-0.24;100.00
49311;BME280;35177;45.900;5.946;2023-01-29T05:20:42;98331.16;;;-0.19;100.00
49311;BME280;35177;45.900;5.946;2023-01-29T05:23:18;98329.34;;;-0.25;100.00
49311;BME280;35177;45.900;5.946;2023-01-29T05:25:45;98335.69;;;-0.31;100.00
49311;BME280;35177;45.900;5.946;2023-01-29T05:28:11;98340.31;;;-0.32;100.00
49311;BME280;35177;45.900;5.946;2023-01-29T05:30:48;98348.31;;;-0.37;100.00
49311;BME280;35177;45.900;5.946;2023-01-29T05:35:47;98347.75;;;-0.39;100.00
49311;BME280;35177;45.900;5.946;2023-01-29T05:38:13;98350.47;;;-0.39;100.00
49311;BME280;35177;45.900;5.946;2023-01-29T05:40:39;98352.72;;;-0.36;100.00
49311;BME280;35177;45.900;5.946;2023-01-29T05:43:15;98363.88;;;-0.38;100.00
49311;BME280;35177;45.900;5.946;2023-01-29T05:45:41;98365.53;;;-0.37;100.00
49311;BME280;35177;45.900;5.946;2023-01-29T05:48:06;98368.03;;;-0.35;100.00
49311;BME280;35177;45.900;5.946;2023-01-29T05:50:32;98371.59;;;-0.35;100.00
49311;BME280;35177;45.900;5.946;2023-01-29T05:52:58;98373.34;;;-0.40;100.00
49311;BME280;35177;45.900;5.946;2023-01-29T05:55:24;98373.53;;;-0.42;100.00
49311;BME280;35177;45.900;5.946;2023-01-29T05:57:50;98376.66;;;-0.38;100.00
49311;BME280;35177;45.900;5.946;2023-01-29T06:00:16;98379.84;;;-0.41;100.00
49311;BME280;35177;45.900;5.946;2023-01-29T06:02:41;98379.22;;;-0.43;100.00
49311;BME280;35177;45.900;5.946;2023-01-29T06:05:07;98382.63;;;-0.48;100.00
49311;BME280;35177;45.900;5.946;2023-01-29T06:07:33;98395.91;;;-0.52;100.00
49311;BME280;35177;45.900;5.946;2023-01-29T06:10:00;98400.19;;;-0.62;100.00
49311;BME280;35177;45.900;5.946;2023-01-29T06:12:26;98410.06;;;-0.68;100.00
49311;BME280;35177;45.900;5.946;2023-01-29T06:14:51;98414.41;;;-0.60;100.00
49311;BME280;35177;45.900;5.946;2023-01-29T06:17:17;98416.53;;;-0.62;100.00
49311;BME280;35177;45.900;5.946;2023-01-29T06:19:42;98412.13;;;-0.63;100.00
49311;BME280;35177;45.900;5.946;2023-01-29T06:22:08;98412.97;;;-0.63;100.00
49311;BME280;35177;45.900;5.946;2023-01-29T06:24:33;98418.75;;;-0.53;100.00
49311;BME280;35177;45.900;5.946;2023-01-29T06:26:59;98421.88;;;-0.49;100.00
49311;BME280;35177;45.900;5.946;2023-01-29T06:29:24;98430.72;;;-0.54;100.00
49311;BME280;35177;45.900;5.946;2023-01-29T06:31:50;98425.25;;;-0.54;100.00
49311;BME280;35177;45.900;5.946;2023-01-29T06:34:15;98431.78;;;-0.55;100.00
49311;BME280;35177;45.900;5.946;2023-01-29T06:36:41;98455.53;;;-0.62;100.00
49311;BME280;35177;45.900;5.946;2023-01-29T06:39:06;98440.78;;;-0.54;100.00
49311;BME280;35177;45.900;5.946;2023-01-29T06:41:32;98438.78;;;-0.40;100.00
49311;BME280;35177;45.900;5.946;2023-01-29T06:43:57;98446.81;;;-0.45;100.00
49311;BME280;35177;45.900;5.946;2023-01-29T06:46:23;98443.03;;;-0.76;100.00
49311;BME280;35177;45.900;5.946;2023-01-29T06:48:48;98445.63;;;-0.56;100.00
49311;BME280;35177;45.900;5.946;2023-01-29T06:51:14;98443.50;;;-0.54;100.00
49311;BME280;35177;45.900;5.946;2023-01-29T06:53:39;98448.34;;;-0.56;100.00
49311;BME280;35177;45.900;5.946;2023-01-29T06:56:06;98457.19;;;-0.61;100.00
49311;BME280;35177;45.900;5.946;2023-01-29T06:58:32;98446.00;;;-0.78;100.00
49311;BME280;35177;45.900;5.946;2023-01-29T07:01:08;98444.47;;;-0.74;100.00
49311;BME280;35177;45.900;5.946;2023-01-29T07:03:35;98451.03;;;-0.75;100.00
49311;BME280;35177;45.900;5.946;2023-01-29T07:06:01;98455.34;;;-0.67;100.00
49311;BME280;35177;45.900;5.946;2023-01-29T07:08:27;98465.28;;;-0.47;100.00
49311;BME280;35177;45.900;5.946;2023-01-29T07:10:53;98462.94;;;-0.44;100.00
49311;BME280;35177;45.900;5.946;2023-01-29T07:13:23;98473.84;;;-0.44;100.00
49311;BME280;35177;45.900;5.946;2023-01-29T07:15:48;98474.63;;;-0.37;100.00
49311;BME280;35177;45.900;5.946;2023-01-29T07:18:14;98475.44;;;-0.36;100.00
49311;BME280;35177;45.900;5.946;2023-01-29T07:20:40;98472.94;;;-0.38;100.00
49311;BME280;35177;45.900;5.946;2023-01-29T07:23:16;98484.84;;;-0.32;100.00
49311;BME280;35177;45.900;5.946;2023-01-29T07:25:42;98494.31;;;-0.35;100.00
49311;BME280;35177;45.900;5.946;2023-01-29T07:28:08;98492.44;;;-0.34;100.00
49311;BME280;35177;45.900;5.946;2023-01-29T07:30:34;98494.31;;;-0.35;100.00
49311;BME280;35177;45.900;5.946;2023-01-29T07:33:05;98495.25;;;-0.47;100.00
49311;BME280;35177;45.900;5.946;2023-01-29T07:35:36;98491.88;;;-0.43;100.00
49311;BME280;35177;45.900;5.946;2023-01-29T07:38:02;98489.75;;;-0.41;100.00
49311;BME280;35177;45.900;5.946;2023-01-29T07:40:28;98484.69;;;-0.37;100.00
49311;BME280;35177;45.900;5.946;2023-01-29T07:43:01;98494.22;;;-0.46;100.00
49311;BME280;35177;45.900;5.946;2023-01-29T07:45:27;98496.88;;;-0.65;100.00
49311;BME280;35177;45.900;5.946;2023-01-29T07:47:54;98496.31;;;-0.49;100.00
49311;BME280;35177;45.900;5.946;2023-01-29T07:50:24;98502.34;;;-0.72;100.00
49311;BME280;35177;45.900;5.946;2023-01-29T07:52:50;98504.81;;;-0.63;100.00
49311;BME280;35177;45.900;5.946;2023-01-29T07:55:16;98492.38;;;-0.53;100.00
49311;BME280;35177;45.900;5.946;2023-01-29T07:57:42;98495.03;;;-0.46;100.00
49311;BME280;35177;45.900;5.946;2023-01-29T08:00:09;98498.16;;;-0.42;100.00
49311;BME280;35177;45.900;5.946;2023-01-29T08:02:36;98494.16;;;-0.40;100.00
49311;BME280;35177;45.900;5.946;2023-01-29T08:05:02;98487.91;;;-0.47;100.00
49311;BME280;35177;45.900;5.946;2023-01-29T08:07:27;98486.63;;;-0.44;100.00
49311;BME280;35177;45.900;5.946;2023-01-29T08:09:53;98488.75;;;-0.46;100.00
49311;BME280;35177;45.900;5.946;2023-01-29T08:12:18;98482.28;;;-0.52;100.00
49311;BME280;35177;45.900;5.946;2023-01-29T08:14:44;98481.00;;;-0.50;100.00
49311;BME280;35177;45.900;5.946;2023-01-29T08:17:11;98474.09;;;-0.52;100.00
49311;BME280;35177;45.900;5.946;2023-01-29T08:19:37;98473.00;;;-0.44;100.00
49311;BME280;35177;45.900;5.946;2023-01-29T08:22:04;98480.34;;;-0.45;100.00
49311;BME280;35177;45.900;5.946;2023-01-29T08:24:29;98475.38;;;-0.55;100.00
49311;BME280;35177;45.900;5.946;2023-01-29T08:26:55;98471.16;;;-0.51;100.00
49311;BME280;35177;45.900;5.946;2023-01-29T08:29:21;98477.66;;;-0.26;100.00
49311;BME280;35177;45.900;5.946;2023-01-29T08:31:53;98479.97;;;-0.23;100.00
49311;BME280;35177;45.900;5.946;2023-01-29T08:34:29;98480.56;;;-0.21;100.00
49311;BME280;35177;45.900;5.946;2023-01-29T08:36:54;98482.22;;;-0.20;100.00
49311;BME280;35177;45.900;5.946;2023-01-29T08:39:20;98483.28;;;-0.21;100.00
49311;BME280;35177;45.900;5.946;2023-01-29T08:41:45;98490.41;;;-0.20;100.00
49311;BME280;35177;45.900;5.946;2023-01-29T08:44:10;98485.19;;;-0.22;100.00
49311;BME280;35177;45.900;5.946;2023-01-29T08:46:36;98485.75;;;-0.13;100.00
49311;BME280;35177;45.900;5.946;2023-01-29T08:49:26;98494.75;;;-0.12;100.00
49311;BME280;35177;45.900;5.946;2023-01-29T08:52:14;98503.41;;;-0.15;100.00
49311;BME280;35177;45.900;5.946;2023-01-29T08:54:40;98503.94;;;-0.07;100.00
49311;BME280;35177;45.900;5.946;2023-01-29T08:57:05;98506.44;;;-0.05;100.00
49311;BME280;35177;45.900;5.946;2023-01-29T08:59:32;98512.28;;;-0.02;100.00
49311;BME280;35177;45.900;5.946;2023-01-29T09:01:58;98505.34;;;0.03;100.00
49311;BME280;35177;45.900;5.946;2023-01-29T09:04:23;98513.53;;;0.03;100.00
49311;BME280;35177;45.900;5.946;2023-01-29T09:06:49;98508.66;;;0.05;100.00
49311;BME280;35177;45.900;5.946;2023-01-29T09:09:15;98522.75;;;0.02;100.00
49311;BME280;35177;45.900;5.946;2023-01-29T09:11:40;98524.63;;;0.01;100.00
49311;BME280;35177;45.900;5.946;2023-01-29T09:14:06;98521.25;;;0.06;100.00
49311;BME280;35177;45.900;5.946;2023-01-29T09:16:31;98521.41;;;0.11;100.00
49311;BME280;35177;45.900;5.946;2023-01-29T09:18:57;98529.81;;;0.09;100.00
49311;BME280;35177;45.900;5.946;2023-01-29T09:21:22;98525.66;;;0.07;100.00
49311;BME280;35177;45.900;5.946;2023-01-29T09:23:48;98530.50;;;0.05;100.00
49311;BME280;35177;45.900;5.946;2023-01-29T09:26:13;98532.63;;;0.03;100.00
49311;BME280;35177;45.900;5.946;2023-01-29T09:28:39;98536.97;;;0.10;100.00
49311;BME280;35177;45.900;5.946;2023-01-29T09:31:05;98542.06;;;0.25;100.00
49311;BME280;35177;45.900;5.946;2023-01-29T09:33:31;98540.84;;;0.21;100.00
49311;BME280;35177;45.900;5.946;2023-01-29T09:36:02;98549.00;;;0.03;100.00
49311;BME280;35177;45.900;5.946;2023-01-29T09:38:28;98540.81;;;0.03;100.00
49311;BME280;35177;45.900;5.946;2023-01-29T09:46:20;98542.34;;;0.17;100.00
49311;BME280;35177;45.900;5.946;2023-01-29T09:48:49;98547.09;;;0.03;100.00
49311;BME280;35177;45.900;5.946;2023-01-29T09:51:27;98551.94;;;0.01;100.00
49311;BME280;35177;45.900;5.946;2023-01-29T09:56:30;98548.94;;;0.09;100.00
49311;BME280;35177;45.900;5.946;2023-01-29T09:58:57;98551.88;;;0.08;100.00
49311;BME280;35177;45.900;5.946;2023-01-29T10:25:13;98575.22;;;0.47;100.00
49311;BME280;35177;45.900;5.946;2023-01-29T10:27:43;98579.13;;;0.58;100.00
49311;BME280;35177;45.900;5.946;2023-01-29T10:30:39;98585.97;;;0.68;100.00
49311;BME280;35177;45.900;5.946;2023-01-29T10:33:18;98582.28;;;0.55;100.00
49311;BME280;35177;45.900;5.946;2023-01-29T10:35:49;98592.25;;;0.50;100.00
49311;BME280;35177;45.900;5.946;2023-01-29T10:38:30;98592.69;;;0.65;100.00
49311;BME280;35177;45.900;5.946;2023-01-29T10:41:20;98586.94;;;0.73;100.00
49311;BME280;35177;45.900;5.946;2023-01-29T10:43:53;98588.09;;;0.66;100.00
49311;BME280;35177;45.900;5.946;2023-01-29T10:49:09;98584.00;;;0.93;100.00
49311;BME280;35177;45.900;5.946;2023-01-29T11:00:21;98584.16;;;0.80;100.00
49311;BME280;35177;45.900;5.946;2023-01-29T11:02:49;98579.59;;;0.74;100.00
49311;BME280;35177;45.900;5.946;2023-01-29T11:07:41;98578.94;;;1.27;100.00
49311;BME280;35177;45.900;5.946;2023-01-29T11:10:16;98580.75;;;1.34;100.00
49311;BME280;35177;45.900;5.946;2023-01-29T11:12:44;98578.00;;;1.34;100.00
49311;BME280;35177;45.900;5.946;2023-01-29T11:15:26;98580.31;;;1.37;100.00
49311;BME280;35177;45.900;5.946;2023-01-29T11:18:13;98585.91;;;1.42;100.00
49311;BME280;35177;45.900;5.946;2023-01-29T11:20:46;98578.53;;;1.42;100.00
49311;BME280;35177;45.900;5.946;2023-01-29T11:23:30;98571.84;;;1.38;100.00
49311;BME280;35177;45.900;5.946;2023-01-29T11:25:57;98569.50;;;1.42;100.00
49311;BME280;35177;45.900;5.946;2023-01-29T11:28:40;98572.38;;;1.47;100.00
49311;BME280;35177;45.900;5.946;2023-01-29T11:31:21;98562.41;;;1.53;100.00
49311;BME280;35177;45.900;5.946;2023-01-29T11:33:49;98560.97;;;1.50;100.00
49311;BME280;35177;45.900;5.946;2023-01-29T11:36:36;98563.91;;;1.49;100.00
49311;BME280;35177;45.900;5.946;2023-01-29T11:39:18;98562.03;;;1.49;100.00
49311;BME280;35177;45.900;5.946;2023-01-29T11:44:21;98558.72;;;1.59;100.00
49311;BME280;35177;45.900;5.946;2023-01-29T11:46:51;98561.34;;;1.66;100.00
49311;BME280;35177;45.900;5.946;2023-01-29T11:49:32;98557.56;;;1.67;100.00
49311;BME280;35177;45.900;5.946;2023-01-29T11:52:01;98547.69;;;1.66;100.00
49311;BME280;35177;45.900;5.946;2023-01-29T11:54:33;98562.66;;;1.63;100.00
49311;BME280;35177;45.900;5.946;2023-01-29T11:57:01;98550.53;;;1.71;100.00
49311;BME280;35177;45.900;5.946;2023-01-29T11:59:40;98559.69;;;1.65;100.00
49311;BME280;35177;45.900;5.946;2023-01-29T12:02:35;98548.78;;;1.76;100.00
49311;BME280;35177;45.900;5.946;2023-01-29T12:05:25;98550.69;;;1.88;100.00
49311;BME280;35177;45.900;5.946;2023-01-29T12:07:56;98548.44;;;1.97;100.00
49311;BME280;35177;45.900;5.946;2023-01-29T12:10:36;98548.22;;;1.86;100.00
49311;BME280;35177;45.900;5.946;2023-01-29T12:15:41;98539.88;;;1.81;100.00
49311;BME280;35177;45.900;5.946;2023-01-29T12:18:34;98540.81;;;1.75;100.00
49311;BME280;35177;45.900;5.946;2023-01-29T12:21:03;98529.88;;;1.75;100.00
49311;BME280;35177;45.900;5.946;2023-01-29T12:23:46;98524.75;;;1.79;100.00
49311;BME280;35177;45.900;5.946;2023-01-29T12:26:18;98522.84;;;1.79;100.00
49311;BME280;35177;45.900;5.946;2023-01-29T12:32:05;98511.31;;;1.89;100.00
49311;BME280;35177;45.900;5.946;2023-01-29T12:39:56;98509.66;;;2.00;100.00
49311;BME280;35177;45.900;5.946;2023-01-29T12:42:23;98489.81;;;2.04;100.00
49311;BME280;35177;45.900;5.946;2023-01-29T12:45:00;98492.78;;;2.03;100.00
49311;BME280;35177;45.900;5.946;2023-01-29T12:47:32;98496.81;;;2.12;100.00
49311;BME280;35177;45.900;5.946;2023-01-29T12:50:20;98489.31;;;2.19;100.00
49311;BME280;35177;45.900;5.946;2023-01-29T12:53:55;98490.63;;;2.17;100.00
49311;BME280;35177;45.900;5.946;2023-01-29T12:55:52;98493.47;;;2.10;100.00
49311;BME280;35177;45.900;5.946;2023-01-29T12:58:48;98495.97;;;2.23;100.00
49311;BME280;35177;45.900;5.946;2023-01-29T13:01:36;98496.09;;;2.17;100.00
49311;BME280;35177;45.900;5.946;2023-01-29T13:06:54;98488.72;;;2.17;100.00
49311;BME280;35177;45.900;5.946;2023-01-29T13:09:43;98493.72;;;2.20;100.00
49311;BME280;35177;45.900;5.946;2023-01-29T13:12:16;98493.13;;;2.18;100.00
49311;BME280;35177;45.900;5.946;2023-01-29T13:14:59;98482.53;;;1.86;100.00
49311;BME280;35177;45.900;5.946;2023-01-29T13:17:34;98474.66;;;1.90;100.00
49311;BME280;35177;45.900;5.946;2023-01-29T13:20:08;98482.91;;;2.02;100.00
49311;BME280;35177;45.900;5.946;2023-01-29T13:22:37;98478.00;;;2.16;100.00
49311;BME280;35177;45.900;5.946;2023-01-29T13:25:05;98480.59;;;2.22;100.00
49311;BME280;35177;45.900;5.946;2023-01-29T13:27:35;98482.06;;;2.13;100.00
49311;BME280;35177;45.900;5.946;2023-01-29T13:30:02;98476.09;;;1.92;100.00
49311;BME280;35177;45.900;5.946;2023-01-29T13:32:30;98475.16;;;1.99;100.00
49311;BME280;35177;45.900;5.946;2023-01-29T13:34:59;98470.13;;;2.07;100.00
49311;BME280;35177;45.900;5.946;2023-01-29T13:37:30;98471.56;;;2.10;100.00
49311;BME280;35177;45.900;5.946;2023-01-29T13:39:58;98474.81;;;2.19;100.00
49311;BME280;35177;45.900;5.946;2023-01-29T13:45:02;98473.69;;;2.20;100.00
49311;BME280;35177;45.900;5.946;2023-01-29T13:47:35;98479.53;;;2.23;100.00
49311;BME280;35177;45.900;5.946;2023-01-29T13:50:05;98471.94;;;2.37;100.00
49311;BME280;35177;45.900;5.946;2023-01-29T13:52:51;98474.41;;;2.39;100.00
49311;BME280;35177;45.900;5.946;2023-01-29T14:02:46;98470.34;;;2.53;100.00
49311;BME280;35177;45.900;5.946;2023-01-29T14:08:04;98473.25;;;2.35;96.04
49311;BME280;35177;45.900;5.946;2023-01-29T14:10:32;98471.47;;;2.05;100.00
49311;BME280;35177;45.900;5.946;2023-01-29T14:15:36;98484.06;;;2.53;100.00
49311;BME280;35177;45.900;5.946;2023-01-29T14:18:19;98479.84;;;2.63;100.00
49311;BME280;35177;45.900;5.946;2023-01-29T14:25:53;98478.78;;;2.52;100.00
49311;BME280;35177;45.900;5.946;2023-01-29T14:28:22;98469.41;;;2.48;100.00
49311;BME280;35177;45.900;5.946;2023-01-29T14:30:48;98474.78;;;2.31;100.00
49311;BME280;35177;45.900;5.946;2023-01-29T14:33:43;98473.34;;;2.40;100.00
49311;BME280;35177;45.900;5.946;2023-01-29T14:36:12;98468.59;;;2.35;100.00
49311;BME280;35177;45.900;5.946;2023-01-29T14:38:39;98463.81;;;2.43;100.00
49311;BME280;35177;45.900;5.946;2023-01-29T14:41:23;98473.81;;;2.37;100.00
49311;BME280;35177;45.900;5.946;2023-01-29T14:43:49;98479.69;;;2.29;100.00
49311;BME280;35177;45.900;5.946;2023-01-29T14:48:58;98472.78;;;2.14;100.00
49311;BME280;35177;45.900;5.946;2023-01-29T14:51:25;98471.72;;;2.15;100.00
49311;BME280;35177;45.900;5.946;2023-01-29T14:54:03;98477.88;;;2.22;100.00
49311;BME280;35177;45.900;5.946;2023-01-29T14:56:40;98474.81;;;2.19;100.00
49311;BME280;35177;45.900;5.946;2023-01-29T15:01:46;98483.13;;;2.24;100.00
49311;BME280;35177;45.900;5.946;2023-01-29T15:04:16;98490.75;;;2.22;100.00
49311;BME280;35177;45.900;5.946;2023-01-29T15:06:46;98480.50;;;2.17;100.00
49311;BME280;35177;45.900;5.946;2023-01-29T15:09:14;98490.75;;;2.22;100.00
49311;BME280;35177;45.900;5.946;2023-01-29T15:14:40;98484.06;;;2.06;100.00
49311;BME280;35177;45.900;5.946;2023-01-29T15:19:41;98482.75;;;1.97;100.00
49311;BME280;35177;45.900;5.946;2023-01-29T15:22:12;98484.44;;;1.98;100.00
49311;BME280;35177;45.900;5.946;2023-01-29T15:24:39;98489.69;;;1.99;100.00
49311;BME280;35177;45.900;5.946;2023-01-29T15:27:17;98484.06;;;1.94;100.00
49311;BME280;35177;45.900;5.946;2023-01-29T15:29:52;98498.56;;;1.83;100.00
49311;BME280;35177;45.900;5.946;2023-01-29T15:32:35;98489.91;;;1.86;100.00
49311;BME280;35177;45.900;5.946;2023-01-29T15:35:06;98492.03;;;1.84;100.00
49311;BME280;35177;45.900;5.946;2023-01-29T15:37:33;98494.41;;;1.80;100.00
49311;BME280;35177;45.900;5.946;2023-01-29T15:40:00;98493.22;;;1.76;100.00